Time;durP1;ratioP1;P1;durP2;ratioP2;P2;SDS_P1;SDS_P2;PMS_P1;PMS_P2;Temp;Humidity;BMP_temperature;BMP_pressure;BME280_temperature;BME280_humidity;BME280_pressure;Samples;Min_cycle;Max_cycle;Signal;HPM_P1;HPM_P2
2022/12/15 00:39:01;;;;;;;1.23;1.13;;;;;;;;;;5050841;28;20211;-69
2022/12/15 00:41:48;;;;;;;0.90;0.90;;;;;;;;;;5043731;28;20243;-69
2022/12/15 00:44:14;;;;;;;1.90;1.80;;;;;;;;;;5047251;28;20201;-68
2022/12/15 00:46:53;;;;;;;6.40;5.90;;;;;;;;;;5043572;28;20240;-68
2022/12/15 01:22:14;;;;;;;0.60;0.60;;;;;;;;;;5048852;28;20251;-69
2022/12/15 01:24:41;;;;;;;0.60;0.60;;;;;;;;;;5043887;28;20213;-68
2022/12/15 01:27:07;;;;;;;1.00;1.00;;;;;;;;;;5046149;28;20240;-69
2022/12/15 01:29:34;;;;;;;0.50;0.50;;;;;;;;;;5045869;28;20275;-68
2022/12/15 01:32:00;;;;;;;0.60;0.60;;;;;;;;;;5047100;28;20488;-69
2022/12/15 01:34:28;;;;;;;0.80;0.80;;;;;;;;;;5045469;28;20236;-69
2022/12/15 01:36:54;;;;;;;0.50;0.50;;;;;;;;;;5046919;28;20248;-69
2022/12/15 01:39:20;;;;;;;2.43;2.43;;;;;;;;;;5051938;28;20392;-68
2022/12/15 01:41:46;;;;;;;2.83;2.73;;;;;;;;;;5049557;28;20260;-69
2022/12/15 01:44:14;;;;;;;0.60;0.60;;;;;;;;;;5051101;28;20231;-68
2022/12/15 01:46:43;;;;;;;0.50;0.50;;;;;;;;;;5046487;28;20253;-68
2022/12/15 01:49:14;;;;;;;1.90;1.80;;;;;;;;;;5053281;28;20415;-68
2022/12/15 01:51:44;;;;;;;1.27;1.27;;;;;;;;;;5048470;28;20243;-68
2022/12/15 01:54:15;;;;;;;0.60;0.60;;;;;;;;;;5051082;28;20236;-68
2022/12/15 01:56:43;;;;;;;0.60;0.60;;;;;;;;;;5046881;28;20240;-68
2022/12/15 01:59:12;;;;;;;1.00;1.00;;;;;;;;;;5052916;28;20236;-69
2022/12/15 02:01:39;;;;;;;0.60;0.60;;;;;;;;;;5048079;28;20240;-69
2022/12/15 02:04:05;;;;;;;0.70;0.70;;;;;;;;;;5051865;28;20430;-69
2022/12/15 02:06:32;;;;;;;2.20;2.10;;;;;;;;;;5045450;28;20436;-69
2022/12/15 02:09:00;;;;;;;0.60;0.60;;;;;;;;;;5053778;28;20230;-69
2022/12/15 02:11:37;;;;;;;0.50;0.50;;;;;;;;;;5046315;28;20239;-69
2022/12/15 02:14:04;;;;;;;0.60;0.60;;;;;;;;;;5052012;28;20200;-69
2022/12/15 02:16:37;;;;;;;3.03;2.93;;;;;;;;;;5044685;28;20242;-69
2022/12/15 02:19:10;;;;;;;4.10;4.00;;;;;;;;;;5053273;28;20214;-68
2022/12/15 02:21:39;;;;;;;0.70;0.70;;;;;;;;;;5047412;28;20477;-69
2022/12/15 02:24:23;;;;;;;14.97;4.10;;;;;;;;;;5051096;28;20216;-68
2022/12/15 02:27:20;;;;;;;1.57;1.50;;;;;;;;;;5025310;28;20256;-69
2022/12/15 02:32:48;;;;;;;0.50;0.50;;;;;;;;;;5101589;28;20575;-67
2022/12/15 02:35:16;;;;;;;0.60;0.60;;;;;;;;;;5101255;28;20250;-67
2022/12/15 02:37:44;;;;;;;0.60;0.60;;;;;;;;;;5084186;28;20246;-68
2022/12/15 02:40:11;;;;;;;3.50;3.30;;;;;;;;;;5060924;28;20236;-67
2022/12/15 02:42:40;;;;;;;0.53;0.53;;;;;;;;;;5082805;28;20503;-68
2022/12/15 02:45:09;;;;;;;0.60;0.60;;;;;;;;;;5060638;28;20204;-68
2022/12/15 02:47:39;;;;;;;0.50;0.50;;;;;;;;;;5082788;28;20309;-68
2022/12/15 02:50:17;;;;;;;0.50;0.50;;;;;;;;;;5060683;28;20204;-68
2022/12/15 02:52:49;;;;;;;5.80;5.50;;;;;;;;;;5029671;28;20233;-68
2022/12/15 02:55:20;;;;;;;0.60;0.60;;;;;;;;;;5040468;28;20266;-68
2022/12/15 02:57:52;;;;;;;0.70;0.70;;;;;;;;;;5082851;28;20585;-68
2022/12/15 03:00:18;;;;;;;0.57;0.57;;;;;;;;;;5051000;28;20215;-68
2022/12/15 03:02:47;;;;;;;0.50;0.50;;;;;;;;;;5075173;28;20243;-68
2022/12/15 03:05:16;;;;;;;0.50;0.50;;;;;;;;;;5060452;28;20520;-68
2022/12/15 03:07:43;;;;;;;0.50;0.50;;;;;;;;;;5065693;28;20235;-68
2022/12/15 03:10:11;;;;;;;0.50;0.50;;;;;;;;;;5060531;28;20212;-68
2022/12/15 03:12:38;;;;;;;1.33;1.33;;;;;;;;;;5048949;28;20213;-68
2022/12/15 03:15:05;;;;;;;0.50;0.50;;;;;;;;;;5060406;28;20203;-68
2022/12/15 03:17:32;;;;;;;0.43;0.43;;;;;;;;;;5065457;28;20251;-68
2022/12/15 03:19:58;;;;;;;0.40;0.40;;;;;;;;;;5060109;28;20275;-68
2022/12/15 03:22:26;;;;;;;0.50;0.50;;;;;;;;;;5065196;28;20311;-68
2022/12/15 03:24:52;;;;;;;0.50;0.50;;;;;;;;;;5060055;28;20272;-68
2022/12/15 03:27:19;;;;;;;1.50;1.47;;;;;;;;;;5064641;28;20505;-68
2022/12/15 03:29:45;;;;;;;0.50;0.50;;;;;;;;;;5060696;28;20236;-68
2022/12/15 03:32:12;;;;;;;0.50;0.50;;;;;;;;;;5064683;28;20277;-68
2022/12/15 03:34:39;;;;;;;0.50;0.50;;;;;;;;;;5060000;28;20276;-68
2022/12/15 03:37:05;;;;;;;0.50;0.50;;;;;;;;;;5062706;28;20247;-68
2022/12/15 03:39:33;;;;;;;0.50;0.50;;;;;;;;;;5061799;28;20231;-67
2022/12/15 03:42:00;;;;;;;0.40;0.40;;;;;;;;;;5061322;28;20243;-67
2022/12/15 03:44:26;;;;;;;0.50;0.50;;;;;;;;;;5047789;28;20240;-68
2022/12/15 03:46:55;;;;;;;3.60;3.40;;;;;;;;;;5047534;28;20440;-67
2022/12/15 03:49:24;;;;;;;0.50;0.50;;;;;;;;;;5049804;28;20211;-67
2022/12/15 03:51:51;;;;;;;0.50;0.50;;;;;;;;;;5048537;28;20255;-68
2022/12/15 03:54:18;;;;;;;0.60;0.60;;;;;;;;;;5049410;28;20396;-68
2022/12/15 03:56:46;;;;;;;1.07;1.07;;;;;;;;;;5046519;28;20244;-68
2022/12/15 03:59:12;;;;;;;0.50;0.50;;;;;;;;;;5051097;28;20526;-68
2022/12/15 04:01:44;;;;;;;0.50;0.50;;;;;;;;;;5046859;28;20263;-68
2022/12/15 04:04:11;;;;;;;0.60;0.60;;;;;;;;;;5049601;28;20200;-68
2022/12/15 04:06:37;;;;;;;2.00;2.00;;;;;;;;;;5045366;28;20291;-68
2022/12/15 04:09:04;;;;;;;0.57;0.57;;;;;;;;;;5051707;28;20207;-68
2022/12/15 04:11:30;;;;;;;0.60;0.60;;;;;;;;;;5045466;28;20303;-68
2022/12/15 04:13:58;;;;;;;0.50;0.50;;;;;;;;;;5051585;28;20486;-68
2022/12/15 04:16:24;;;;;;;0.50;0.50;;;;;;;;;;5043115;28;20259;-68
2022/12/15 04:20:07;;;;;;;0.50;0.50;;;;;;;;;;5053604;28;20245;-68
2022/12/15 04:21:36;;;;;;;0.50;0.50;;;;;;;;;;5046111;28;20577;-68
2022/12/15 05:32:25;;;;;;;0.50;0.50;;;;;;;;;;5049638;28;20286;-68
2022/12/15 05:34:52;;;;;;;0.97;0.97;;;;;;;;;;5044346;28;20233;-67
2022/12/15 05:37:19;;;;;;;0.50;0.50;;;;;;;;;;5049708;28;20250;-68
2022/12/15 05:39:45;;;;;;;0.53;0.53;;;;;;;;;;5044547;28;20205;-68
2022/12/15 05:42:12;;;;;;;0.50;0.50;;;;;;;;;;5049571;28;20303;-69
2022/12/15 05:44:38;;;;;;;1.80;1.70;;;;;;;;;;5044135;28;20253;-68
2022/12/15 05:47:05;;;;;;;9.90;7.30;;;;;;;;;;5049355;28;20305;-68
2022/12/15 05:49:32;;;;;;;0.50;0.50;;;;;;;;;;5044186;28;20208;-68
2022/12/15 05:51:59;;;;;;;0.60;0.60;;;;;;;;;;5048417;28;20238;-68
2022/12/15 05:54:26;;;;;;;0.50;0.50;;;;;;;;;;5045240;28;20455;-69
2022/12/15 05:56:52;;;;;;;1.00;1.00;;;;;;;;;;5047562;28;20257;-68
2022/12/15 05:59:19;;;;;;;1.13;1.13;;;;;;;;;;5045714;28;20208;-68
2022/12/15 06:01:45;;;;;;;0.60;0.60;;;;;;;;;;5045897;28;20457;-68
2022/12/15 06:04:12;;;;;;;0.60;0.60;;;;;;;;;;5046871;28;20234;-68
2022/12/15 06:06:39;;;;;;;0.60;0.60;;;;;;;;;;5045478;28;20480;-68
2022/12/15 06:09:06;;;;;;;0.50;0.50;;;;;;;;;;5047602;28;20527;-68
2022/12/15 06:11:33;;;;;;;0.50;0.50;;;;;;;;;;5044838;28;20293;-68
2022/12/15 06:13:59;;;;;;;1.30;1.03;;;;;;;;;;5048272;28;20245;-68
2022/12/15 06:16:26;;;;;;;2.10;2.00;;;;;;;;;;5043590;28;20261;-69
2022/12/15 06:18:54;;;;;;;4.17;1.90;;;;;;;;;;5048710;28;20206;-68
2022/12/15 06:21:22;;;;;;;0.50;0.50;;;;;;;;;;5042972;28;20257;-69
2022/12/15 06:23:49;;;;;;;0.97;0.97;;;;;;;;;;5049527;28;20205;-69
2022/12/15 06:26:18;;;;;;;0.50;0.50;;;;;;;;;;5042224;28;20260;-69
2022/12/15 06:28:45;;;;;;;0.50;0.50;;;;;;;;;;5049812;28;20241;-68
2022/12/15 06:31:12;;;;;;;0.50;0.50;;;;;;;;;;5041489;28;20240;-69
2022/12/15 06:33:39;;;;;;;0.50;0.50;;;;;;;;;;5050715;28;20247;-68
2022/12/15 06:36:06;;;;;;;0.60;0.60;;;;;;;;;;5041080;28;20589;-68
2022/12/15 06:38:32;;;;;;;0.60;0.60;;;;;;;;;;5051092;28;20237;-68
2022/12/15 06:41:00;;;;;;;0.50;0.50;;;;;;;;;;5040199;28;20242;-68
2022/12/15 06:43:28;;;;;;;0.50;0.50;;;;;;;;;;5051844;28;20240;-69
2022/12/15 06:45:54;;;;;;;0.60;0.60;;;;;;;;;;5039509;28;20590;-69
2022/12/15 06:48:21;;;;;;;1.60;1.53;;;;;;;;;;5052485;28;20214;-69
2022/12/15 06:50:48;;;;;;;0.67;0.67;;;;;;;;;;5038374;28;20252;-68
2022/12/15 06:53:16;;;;;;;0.50;0.50;;;;;;;;;;5053721;28;20459;-69
2022/12/15 06:55:43;;;;;;;0.60;0.60;;;;;;;;;;5037859;28;20580;-69
2022/12/15 06:58:11;;;;;;;0.60;0.60;;;;;;;;;;5053923;28;20212;-69
2022/12/15 07:00:39;;;;;;;0.50;0.50;;;;;;;;;;5036786;28;20240;-69
2022/12/15 07:03:07;;;;;;;0.50;0.50;;;;;;;;;;5054537;28;20237;-69
2022/12/15 07:05:33;;;;;;;0.50;0.50;;;;;;;;;;5036221;28;20259;-69
2022/12/15 07:08:00;;;;;;;0.50;0.50;;;;;;;;;;5055388;28;20205;-69
2022/12/15 07:10:26;;;;;;;0.63;0.63;;;;;;;;;;5035641;28;20240;-68
2022/12/15 07:12:52;;;;;;;0.50;0.50;;;;;;;;;;5055929;28;20206;-69
2022/12/15 07:15:19;;;;;;;0.50;0.50;;;;;;;;;;5034515;28;20546;-68
2022/12/15 07:17:46;;;;;;;0.50;0.50;;;;;;;;;;5057778;28;20403;-68
2022/12/15 07:20:13;;;;;;;0.60;0.60;;;;;;;;;;5037551;28;20224;-67
2022/12/15 07:22:39;;;;;;;0.90;0.90;;;;;;;;;;5061639;28;20218;-70
2022/12/15 07:25:07;;;;;;;0.93;0.93;;;;;;;;;;5046956;28;20217;-68
2022/12/15 07:27:33;;;;;;;0.53;0.53;;;;;;;;;;5035301;28;20531;-69
2022/12/15 07:29:59;;;;;;;0.50;0.50;;;;;;;;;;5046942;28;20210;-68
2022/12/15 07:32:26;;;;;;;3.40;3.13;;;;;;;;;;5051784;28;20253;-68
2022/12/15 07:34:54;;;;;;;0.57;0.57;;;;;;;;;;5046676;28;20220;-68
2022/12/15 07:37:20;;;;;;;0.50;0.50;;;;;;;;;;5052069;28;20292;-69
2022/12/15 07:39:47;;;;;;;0.60;0.60;;;;;;;;;;5046596;28;20205;-69
2022/12/15 07:42:13;;;;;;;0.50;0.50;;;;;;;;;;5051863;28;20245;-68
2022/12/15 07:44:40;;;;;;;0.50;0.50;;;;;;;;;;5046748;28;20204;-68
2022/12/15 07:47:06;;;;;;;0.60;0.60;;;;;;;;;;5051483;28;20242;-70
2022/12/15 07:49:33;;;;;;;0.57;0.57;;;;;;;;;;5046382;28;20233;-67
2022/12/15 07:52:00;;;;;;;0.50;0.50;;;;;;;;;;5050599;28;20466;-69
2022/12/15 07:54:28;;;;;;;0.50;0.50;;;;;;;;;;5047470;28;20273;-69
2022/12/15 07:56:54;;;;;;;0.50;0.50;;;;;;;;;;5049962;28;20268;-68
2022/12/15 07:59:20;;;;;;;0.57;0.57;;;;;;;;;;5047824;28;20210;-68
2022/12/15 08:01:48;;;;;;;0.50;0.50;;;;;;;;;;5048798;28;20265;-68
2022/12/15 08:04:14;;;;;;;0.67;0.67;;;;;;;;;;5048518;28;20211;-68
2022/12/15 08:06:41;;;;;;;0.50;0.50;;;;;;;;;;5048086;28;20452;-68
2022/12/15 08:09:09;;;;;;;0.50;0.50;;;;;;;;;;5049184;28;20274;-71
2022/12/15 08:11:35;;;;;;;0.50;0.50;;;;;;;;;;5047120;28;20253;-68
2022/12/15 08:14:02;;;;;;;0.50;0.50;;;;;;;;;;5050138;28;20234;-68
2022/12/15 08:16:29;;;;;;;0.60;0.60;;;;;;;;;;5046015;28;20569;-68
2022/12/15 08:18:56;;;;;;;5.33;4.93;;;;;;;;;;5050846;28;20250;-68
2022/12/15 08:21:22;;;;;;;0.50;0.50;;;;;;;;;;5045481;28;20256;-68
2022/12/15 08:23:49;;;;;;;0.50;0.50;;;;;;;;;;5051639;28;20543;-68
2022/12/15 08:26:17;;;;;;;1.27;1.27;;;;;;;;;;5044376;28;20238;-68
2022/12/15 08:28:44;;;;;;;0.50;0.50;;;;;;;;;;5052294;28;20241;-68
2022/12/15 08:31:12;;;;;;;0.67;0.67;;;;;;;;;;5043532;28;20457;-67
2022/12/15 08:33:38;;;;;;;0.50;0.50;;;;;;;;;;5052586;28;20204;-67
2022/12/15 08:36:07;;;;;;;4.50;1.90;;;;;;;;;;5042667;28;20281;-68
2022/12/15 08:38:34;;;;;;;2.50;2.40;;;;;;;;;;5053208;28;20207;-67
2022/12/15 08:41:06;;;;;;;0.63;0.63;;;;;;;;;;5042266;28;20257;-67
2022/12/15 08:43:34;;;;;;;0.50;0.50;;;;;;;;;;5053368;28;20283;-67
2022/12/15 08:46:00;;;;;;;0.60;0.60;;;;;;;;;;5041964;28;20261;-68
2022/12/15 08:48:27;;;;;;;0.40;0.40;;;;;;;;;;5053869;28;20208;-68
2022/12/15 08:50:54;;;;;;;1.80;1.80;;;;;;;;;;5041161;28;20505;-68
2022/12/15 08:53:21;;;;;;;0.40;0.40;;;;;;;;;;5054480;28;20200;-67
2022/12/15 08:55:47;;;;;;;0.50;0.50;;;;;;;;;;5040006;28;20249;-66
2022/12/15 08:58:14;;;;;;;0.40;0.40;;;;;;;;;;5055536;28;20243;-67
2022/12/15 09:00:42;;;;;;;0.40;0.40;;;;;;;;;;5039051;28;20243;-67
2022/12/15 09:03:08;;;;;;;0.40;0.40;;;;;;;;;;5056282;28;20467;-68
2022/12/15 09:05:35;;;;;;;0.40;0.40;;;;;;;;;;5038448;28;20254;-67
2022/12/15 09:08:01;;;;;;;0.60;0.60;;;;;;;;;;5057107;28;20530;-68
2022/12/15 09:10:28;;;;;;;1.37;1.37;;;;;;;;;;5037596;28;20675;-68
2022/12/15 09:12:54;;;;;;;0.57;0.57;;;;;;;;;;5057504;28;20189;-68
2022/12/15 09:15:21;;;;;;;0.40;0.40;;;;;;;;;;5036178;28;20565;-68
2022/12/15 09:17:49;;;;;;;0.30;0.30;;;;;;;;;;5058595;28;20205;-67
2022/12/15 09:20:15;;;;;;;0.30;0.30;;;;;;;;;;5035554;28;20412;-68
2022/12/15 09:22:41;;;;;;;0.30;0.30;;;;;;;;;;5058888;28;20286;-67
2022/12/15 09:25:08;;;;;;;1.60;1.43;;;;;;;;;;5037907;28;20532;-66
2022/12/15 09:27:35;;;;;;;1.93;1.80;;;;;;;;;;5059967;28;20246;-67
2022/12/15 09:30:02;;;;;;;0.43;0.43;;;;;;;;;;5044472;28;20206;-68
2022/12/15 09:32:28;;;;;;;0.20;0.20;;;;;;;;;;5049544;28;20249;-68
2022/12/15 09:34:56;;;;;;;0.90;0.90;;;;;;;;;;5044380;28;20207;-68
2022/12/15 09:37:23;;;;;;;1.43;1.40;;;;;;;;;;5049968;28;20501;-67
2022/12/15 09:39:49;;;;;;;2.00;1.90;;;;;;;;;;5044464;28;20441;-68
2022/12/15 09:42:22;;;;;;;0.20;0.20;;;;;;;;;;5049420;28;20262;-68
2022/12/15 09:44:50;;;;;;;0.30;0.30;;;;;;;;;;5044595;28;20235;-67
2022/12/15 09:47:18;;;;;;;0.20;0.20;;;;;;;;;;5049745;28;20242;-68
2022/12/15 09:49:51;;;;;;;0.20;0.20;;;;;;;;;;5044452;28;20240;-67
2022/12/15 09:52:20;;;;;;;0.30;0.30;;;;;;;;;;5049584;28;20241;-67
2022/12/15 09:54:46;;;;;;;0.57;0.57;;;;;;;;;;5044069;28;20329;-67
2022/12/15 09:57:19;;;;;;;1.17;0.67;;;;;;;;;;5049630;28;20340;-67
2022/12/15 09:59:55;;;;;;;0.40;0.40;;;;;;;;;;5044064;28;20261;-66
2022/12/15 10:02:28;;;;;;;1.07;1.07;;;;;;;;;;5049437;28;20251;-67
2022/12/15 10:04:57;;;;;;;0.30;0.30;;;;;;;;;;5044307;28;20254;-67
2022/12/15 10:07:28;;;;;;;1.47;1.40;;;;;;;;;;5049490;28;20239;-68
2022/12/15 10:09:55;;;;;;;0.10;0.10;;;;;;;;;;5044183;28;20508;-67
2022/12/15 10:12:24;;;;;;;0.47;0.47;;;;;;;;;;5049281;28;20319;-67
2022/12/15 10:14:52;;;;;;;0.20;0.20;;;;;;;;;;5044054;28;20245;-67
2022/12/15 10:17:21;;;;;;;0.20;0.20;;;;;;;;;;5049260;28;20243;-66
2022/12/15 10:19:51;;;;;;;0.37;0.37;;;;;;;;;;5043724;28;20212;-67
2022/12/15 10:22:21;;;;;;;1.47;1.37;;;;;;;;;;5049281;28;20241;-67
2022/12/15 10:24:49;;;;;;;0.60;0.60;;;;;;;;;;5043996;28;20217;-67
2022/12/15 10:27:22;;;;;;;1.80;1.70;;;;;;;;;;5049182;28;20248;-67
2022/12/15 10:29:55;;;;;;;0.27;0.27;;;;;;;;;;5043998;28;20421;-67
2022/12/15 10:32:25;;;;;;;0.10;0.10;;;;;;;;;;5048870;28;20270;-66
2022/12/15 10:34:51;;;;;;;0.40;0.40;;;;;;;;;;5043490;28;20512;-67
2022/12/15 10:37:19;;;;;;;0.20;0.20;;;;;;;;;;5049183;28;20239;-66
2022/12/15 10:39:47;;;;;;;0.50;0.50;;;;;;;;;;5043548;28;20212;-66
2022/12/15 10:42:20;;;;;;;0.10;0.10;;;;;;;;;;5048867;28;20504;-69
2022/12/15 10:44:48;;;;;;;0.10;0.10;;;;;;;;;;5043725;28;20217;-66
2022/12/15 10:47:17;;;;;;;0.43;0.43;;;;;;;;;;5048990;28;20300;-65
2022/12/15 10:49:44;;;;;;;0.20;0.20;;;;;;;;;;5043759;28;20547;-67
2022/12/15 10:52:16;;;;;;;2.83;2.50;;;;;;;;;;5048898;28;20257;-66
2022/12/15 10:54:45;;;;;;;1.57;1.53;;;;;;;;;;5047818;28;20256;-66
2022/12/15 10:57:15;;;;;;;0.10;0.10;;;;;;;;;;5052918;28;20241;-66
2022/12/15 10:59:43;;;;;;;0.20;0.20;;;;;;;;;;5047659;28;20217;-67
2022/12/15 11:02:28;;;;;;;0.20;0.20;;;;;;;;;;5052794;28;20485;-66
2022/12/15 11:04:55;;;;;;;0.20;0.20;;;;;;;;;;5047551;28;20529;-66
2022/12/15 11:07:22;;;;;;;0.20;0.20;;;;;;;;;;5052855;28;20263;-66
2022/12/15 11:09:49;;;;;;;0.10;0.10;;;;;;;;;;5047483;28;20244;-66
2022/12/15 11:15:02;;;;;;;4.13;3.93;;;;;;;;;;5047171;28;20496;-67
2022/12/15 11:17:36;;;;;;;0.60;0.60;;;;;;;;;;5052668;28;20241;-67
2022/12/15 11:20:04;;;;;;;0.10;0.10;;;;;;;;;;5047221;28;20192;-67
2022/12/15 11:22:34;;;;;;;0.20;0.20;;;;;;;;;;5052533;28;20268;-66
2022/12/15 11:25:05;;;;;;;0.10;0.10;;;;;;;;;;5046784;28;20230;-67
2022/12/15 11:27:33;;;;;;;0.20;0.20;;;;;;;;;;5052545;28;20241;-66
2022/12/15 11:30:02;;;;;;;1.30;1.20;;;;;;;;;;5046831;28;20511;-66
2022/12/15 11:32:32;;;;;;;7.03;6.63;;;;;;;;;;5051976;28;20249;-66
2022/12/15 11:34:59;;;;;;;0.47;0.47;;;;;;;;;;5046694;28;20264;-66
2022/12/15 11:37:36;;;;;;;0.10;0.10;;;;;;;;;;5052203;28;20240;-67
2022/12/15 11:40:14;;;;;;;0.23;0.23;;;;;;;;;;5046900;28;20207;-65
2022/12/15 11:42:47;;;;;;;0.20;0.20;;;;;;;;;;5040196;28;20213;-64
2022/12/15 11:45:16;;;;;;;0.20;0.20;;;;;;;;;;5037355;28;20425;-66
2022/12/15 11:47:48;;;;;;;0.33;0.33;;;;;;;;;;5060637;28;20195;-67
2022/12/15 11:50:19;;;;;;;0.20;0.20;;;;;;;;;;5037439;28;20552;-67
2022/12/15 11:52:50;;;;;;;0.87;0.87;;;;;;;;;;5060322;28;20195;-65
2022/12/15 11:55:20;;;;;;;1.13;1.03;;;;;;;;;;5037330;28;20221;-65
2022/12/15 11:57:57;;;;;;;0.10;0.10;;;;;;;;;;5060013;28;20228;-65
2022/12/15 12:00:23;;;;;;;0.10;0.10;;;;;;;;;;5037703;28;20202;-62
2022/12/15 12:02:56;;;;;;;0.10;0.10;;;;;;;;;;5059752;28;20277;-63
2022/12/15 12:05:29;;;;;;;0.10;0.10;;;;;;;;;;5037801;28;20269;-63
2022/12/15 12:08:01;;;;;;;4.47;4.27;;;;;;;;;;5058617;28;20203;-63
2022/12/15 12:10:31;;;;;;;0.20;0.20;;;;;;;;;;5038848;28;20435;-63
2022/12/15 12:13:00;;;;;;;0.20;0.20;;;;;;;;;;5058258;28;20233;-63
2022/12/15 12:15:29;;;;;;;2.43;1.43;;;;;;;;;;5037998;28;20233;-63
2022/12/15 12:18:00;;;;;;;3.73;3.63;;;;;;;;;;5058772;28;20389;-63
2022/12/15 12:20:28;;;;;;;0.27;0.27;;;;;;;;;;5038111;28;20194;-63
2022/12/15 12:22:57;;;;;;;0.10;0.10;;;;;;;;;;5058451;28;20224;-64
2022/12/15 12:25:25;;;;;;;0.60;0.60;;;;;;;;;;5037858;28;20451;-64
2022/12/15 12:27:54;;;;;;;0.20;0.20;;;;;;;;;;5058820;28;20196;-63
2022/12/15 12:30:22;;;;;;;0.60;0.60;;;;;;;;;;5037299;28;20555;-64
2022/12/15 12:32:51;;;;;;;1.37;1.37;;;;;;;;;;5059340;28;20394;-63
2022/12/15 12:35:21;;;;;;;0.20;0.20;;;;;;;;;;5036868;28;20218;-64
2022/12/15 12:37:51;;;;;;;4.23;0.70;;;;;;;;;;5059161;28;20193;-64
2022/12/15 12:40:19;;;;;;;0.20;0.20;;;;;;;;;;5036703;28;20279;-64
2022/12/15 12:42:49;;;;;;;0.50;0.50;;;;;;;;;;5059518;28;20486;-64
2022/12/15 12:45:16;;;;;;;0.20;0.20;;;;;;;;;;5036111;28;20285;-64
2022/12/15 12:47:44;;;;;;;0.20;0.20;;;;;;;;;;5059853;28;20225;-64
2022/12/15 12:50:15;;;;;;;0.20;0.20;;;;;;;;;;5035678;28;20209;-64
2022/12/15 12:52:48;;;;;;;0.93;0.93;;;;;;;;;;5059541;28;20196;-64
2022/12/15 12:55:24;;;;;;;0.47;0.47;;;;;;;;;;5036124;28;20261;-63
2022/12/15 12:57:52;;;;;;;9.53;8.70;;;;;;;;;;5058274;28;20235;-64
2022/12/15 13:00:20;;;;;;;0.60;0.60;;;;;;;;;;5036123;28;20248;-65
2022/12/15 13:02:48;;;;;;;0.20;0.20;;;;;;;;;;5058829;28;20263;-66
2022/12/15 13:05:36;;;;;;;0.20;0.20;;;;;;;;;;5035796;28;20282;-65
2022/12/15 13:08:27;;;;;;;0.40;0.40;;;;;;;;;;5050604;28;20520;-64
2022/12/15 13:10:55;;;;;;;0.20;0.20;;;;;;;;;;5040860;28;20239;-64
2022/12/15 13:13:43;;;;;;;0.20;0.20;;;;;;;;;;5054409;28;20210;-63
2022/12/15 13:16:11;;;;;;;0.20;0.20;;;;;;;;;;5041559;28;20579;-64
2022/12/15 13:19:02;;;;;;;0.20;0.20;;;;;;;;;;5052379;28;20205;-63
2022/12/15 13:21:51;;;;;;;0.30;0.30;;;;;;;;;;5034400;28;20565;-66
2022/12/15 13:24:22;;;;;;;5.60;5.40;;;;;;;;;;5046951;28;20225;-64
2022/12/15 13:26:48;;;;;;;0.20;0.20;;;;;;;;;;5047675;28;20285;-65
2022/12/15 13:29:16;;;;;;;0.20;0.20;;;;;;;;;;5046802;28;20288;-64
2022/12/15 13:31:47;;;;;;;0.30;0.30;;;;;;;;;;5046651;28;20240;-64
2022/12/15 13:34:21;;;;;;;0.20;0.20;;;;;;;;;;5046898;28;20229;-64
2022/12/15 13:36:48;;;;;;;0.30;0.30;;;;;;;;;;5047340;28;20314;-64
2022/12/15 13:39:45;;;;;;;1.60;1.53;;;;;;;;;;5046980;28;20238;-63
2022/12/15 13:42:29;;;;;;;0.20;0.20;;;;;;;;;;4993102;28;20361;-64
2022/12/15 13:45:03;;;;;;;0.20;0.20;;;;;;;;;;5039344;28;20518;-63
2022/12/15 13:47:30;;;;;;;0.40;0.40;;;;;;;;;;5049852;28;20242;-64
2022/12/15 13:49:59;;;;;;;0.20;0.20;;;;;;;;;;5044492;28;20554;-64
2022/12/15 13:52:27;;;;;;;0.20;0.20;;;;;;;;;;5049671;28;20269;-64
2022/12/15 13:54:55;;;;;;;0.20;0.20;;;;;;;;;;5044303;28;20523;-63
2022/12/15 13:57:22;;;;;;;0.23;0.23;;;;;;;;;;5049605;28;20425;-65
2022/12/15 13:59:52;;;;;;;0.20;0.20;;;;;;;;;;5044342;28;20250;-65
2022/12/15 14:02:25;;;;;;;0.20;0.20;;;;;;;;;;5049476;28;20269;-65
2022/12/15 14:05:11;;;;;;;0.27;0.27;;;;;;;;;;5043868;28;20299;-65
2022/12/15 14:07:38;;;;;;;0.20;0.20;;;;;;;;;;5032683;28;20552;-63
2022/12/15 14:10:07;;;;;;;0.30;0.30;;;;;;;;;;5044124;28;20240;-64
2022/12/15 14:12:33;;;;;;;0.30;0.30;;;;;;;;;;5032443;28;20551;-64
2022/12/15 14:15:01;;;;;;;0.30;0.30;;;;;;;;;;5043727;28;20208;-64
2022/12/15 14:17:32;;;;;;;1.03;1.03;;;;;;;;;;5049317;28;20239;-64
2022/12/15 14:20:10;;;;;;;0.30;0.30;;;;;;;;;;5044078;28;20269;-64
2022/12/15 14:22:41;;;;;;;0.50;0.50;;;;;;;;;;5032723;28;20453;-64
2022/12/15 14:25:14;;;;;;;0.30;0.30;;;;;;;;;;5040517;28;20433;-64
2022/12/15 14:27:40;;;;;;;0.40;0.40;;;;;;;;;;5058231;28;20257;-64
2022/12/15 14:30:25;;;;;;;0.30;0.30;;;;;;;;;;5043858;28;20238;-65
2022/12/15 14:32:56;;;;;;;0.40;0.40;;;;;;;;;;5043213;28;20512;-64
2022/12/15 14:35:28;;;;;;;0.40;0.40;;;;;;;;;;5035023;28;20205;-64
2022/12/15 14:37:56;;;;;;;0.30;0.30;;;;;;;;;;5056206;28;20256;-64
2022/12/15 14:40:23;;;;;;;1.00;1.00;;;;;;;;;;5035389;28;20501;-64
2022/12/15 14:42:50;;;;;;;0.33;0.33;;;;;;;;;;5057064;28;20471;-64
2022/12/15 14:45:19;;;;;;;0.30;0.30;;;;;;;;;;5034123;28;20256;-64
2022/12/15 14:47:51;;;;;;;0.37;0.37;;;;;;;;;;5057219;28;20260;-64
2022/12/15 14:50:21;;;;;;;0.40;0.40;;;;;;;;;;5034315;28;20235;-64
2022/12/15 14:52:47;;;;;;;0.50;0.50;;;;;;;;;;5057159;28;20236;-63
2022/12/15 14:55:29;;;;;;;0.40;0.40;;;;;;;;;;5033689;28;20276;-63
2022/12/15 14:57:56;;;;;;;2.63;2.53;;;;;;;;;;5055800;28;20224;-64
2022/12/15 15:00:24;;;;;;;0.40;0.40;;;;;;;;;;5034848;28;20212;-63
2022/12/15 15:03:08;;;;;;;0.40;0.40;;;;;;;;;;5056561;28;20193;-64
2022/12/15 15:05:39;;;;;;;0.37;0.37;;;;;;;;;;5036370;28;20325;-63
2022/12/15 15:08:06;;;;;;;0.40;0.40;;;;;;;;;;5054586;28;20194;-64
2022/12/15 15:10:32;;;;;;;0.40;0.40;;;;;;;;;;5035989;28;20247;-64
2022/12/15 15:12:58;;;;;;;0.40;0.40;;;;;;;;;;5055709;28;20232;-64
2022/12/15 15:15:26;;;;;;;8.27;3.63;;;;;;;;;;5035190;28;20283;-63
2022/12/15 15:17:54;;;;;;;0.40;0.40;;;;;;;;;;5055990;28;20259;-63
2022/12/15 15:20:21;;;;;;;0.40;0.40;;;;;;;;;;5034889;28;20211;-64
2022/12/15 15:23:01;;;;;;;0.40;0.40;;;;;;;;;;5056597;28;20219;-64
2022/12/15 15:25:29;;;;;;;0.40;0.40;;;;;;;;;;5035454;28;20266;-64
2022/12/15 15:28:11;;;;;;;0.40;0.40;;;;;;;;;;5055627;28;20427;-64
2022/12/15 15:30:41;;;;;;;0.40;0.40;;;;;;;;;;5036923;28;20250;-64
2022/12/15 15:33:08;;;;;;;0.40;0.40;;;;;;;;;;5054112;28;20192;-63
2022/12/15 15:35:35;;;;;;;0.60;0.60;;;;;;;;;;5036299;28;20240;-65
2022/12/15 15:38:04;;;;;;;0.40;0.40;;;;;;;;;;5054905;28;20197;-63
2022/12/15 15:40:31;;;;;;;0.40;0.40;;;;;;;;;;5039228;28;20255;-64
2022/12/15 15:42:57;;;;;;;2.20;2.10;;;;;;;;;;5058662;28;20264;-63
2022/12/15 15:45:24;;;;;;;1.00;1.00;;;;;;;;;;5038443;28;20233;-63
2022/12/15 15:47:51;;;;;;;3.93;1.73;;;;;;;;;;5059541;28;20193;-64
2022/12/15 15:50:21;;;;;;;0.40;0.40;;;;;;;;;;5037360;28;20205;-64
2022/12/15 15:52:48;;;;;;;0.40;0.40;;;;;;;;;;5059874;28;20208;-64
2022/12/15 15:55:19;;;;;;;0.40;0.40;;;;;;;;;;5036917;28;20224;-65
2022/12/15 15:57:45;;;;;;;0.40;0.40;;;;;;;;;;5060317;28;20195;-64
2022/12/15 16:00:16;;;;;;;0.40;0.40;;;;;;;;;;5036459;28;20236;-64
2022/12/15 16:02:43;;;;;;;7.97;7.60;;;;;;;;;;5060239;28;20263;-64
2022/12/15 16:05:09;;;;;;;0.50;0.50;;;;;;;;;;5036319;28;20588;-64
2022/12/15 16:07:36;;;;;;;1.03;1.03;;;;;;;;;;5061027;28;20205;-64
2022/12/15 16:10:03;;;;;;;0.40;0.40;;;;;;;;;;5046234;28;20214;-63
2022/12/15 16:12:33;;;;;;;0.40;0.40;;;;;;;;;;5051454;28;20308;-65
2022/12/15 16:14:59;;;;;;;0.40;0.40;;;;;;;;;;5045785;28;20235;-65
2022/12/15 16:17:26;;;;;;;0.40;0.40;;;;;;;;;;5051393;28;20255;-65
2022/12/15 16:19:52;;;;;;;0.77;0.77;;;;;;;;;;5045746;28;20240;-64
2022/12/15 16:22:19;;;;;;;0.40;0.40;;;;;;;;;;5051317;28;20314;-65
2022/12/15 16:24:46;;;;;;;0.40;0.40;;;;;;;;;;5045953;28;20566;-64
2022/12/15 16:27:13;;;;;;;0.40;0.40;;;;;;;;;;5050971;28;20282;-64
2022/12/15 16:29:41;;;;;;;0.40;0.40;;;;;;;;;;5045564;28;20232;-65
2022/12/15 16:32:09;;;;;;;0.40;0.40;;;;;;;;;;5050771;28;20266;-65
2022/12/15 16:34:35;;;;;;;0.40;0.40;;;;;;;;;;5045800;28;20240;-65
2022/12/15 16:37:02;;;;;;;5.67;5.23;;;;;;;;;;5050220;28;20439;-65
2022/12/15 16:39:30;;;;;;;0.67;0.67;;;;;;;;;;5046232;28;20215;-65
2022/12/15 16:41:57;;;;;;;0.40;0.40;;;;;;;;;;5049636;28;20449;-66
2022/12/15 16:44:24;;;;;;;0.40;0.40;;;;;;;;;;5046378;28;20204;-64
2022/12/15 16:46:52;;;;;;;0.40;0.40;;;;;;;;;;5048865;28;20523;-63
2022/12/15 16:49:18;;;;;;;0.40;0.40;;;;;;;;;;5047548;28;20235;-64
2022/12/15 16:51:46;;;;;;;0.40;0.40;;;;;;;;;;5047811;28;20255;-64
2022/12/15 16:54:15;;;;;;;0.40;0.40;;;;;;;;;;5048175;28;20438;-64
2022/12/15 16:56:42;;;;;;;0.40;0.40;;;;;;;;;;5047502;28;20511;-64
2022/12/15 16:59:11;;;;;;;0.40;0.40;;;;;;;;;;5049755;28;20204;-64
2022/12/15 17:01:38;;;;;;;0.40;0.40;;;;;;;;;;5046649;28;20250;-65
2022/12/15 17:04:06;;;;;;;0.40;0.40;;;;;;;;;;5051697;28;20211;-66
2022/12/15 17:06:32;;;;;;;0.40;0.40;;;;;;;;;;5045803;28;20303;-66
2022/12/15 17:08:58;;;;;;;0.40;0.40;;;;;;;;;;5049669;28;20259;-67
2022/12/15 17:11:26;;;;;;;0.40;0.40;;;;;;;;;;5044847;28;20259;-67
2022/12/15 17:13:55;;;;;;;0.40;0.40;;;;;;;;;;5050366;28;20211;-67
2022/12/15 17:16:22;;;;;;;0.40;0.40;;;;;;;;;;5044037;28;20251;-67
2022/12/15 17:18:50;;;;;;;0.40;0.40;;;;;;;;;;5050863;28;20271;-66